Jump to content


DELTA AIRLINES FLIGHT DL845 FLOWN ON 06-15-2017 BY CAPTAIN JIM BOERMAN

Pilot StatsCaptain Jim Boerman (LDP136) • 4,511.1 total hours • 1,375 total flights [View Logbook]
FLIGHT DETAILS
StatusReceived and approved on 2017-06-15 at 13:06:37
Origin AirportCincinnati-Northern Ky Intl (KCVG) • Cincinnati, Ohio, United States (896 feet MSL)
Filed Flight PlanFLIGHT PLANNER OFFLINE
Destination AirportLuis Munoz Marin Intl (TJSJ) • San Juan, Puerto Rico (9 feet MSL)
Alternate AirportHenry E Rohlsen (TISX) • St Croix I, Virgin Islands, U.S. (65 feet MSL)
AirlineDelta Airlines
AircraftBoeing 737-800 | Winglets (73H / B737-800)
FS Aircraft UsedBoeing 737-832NGX Delta Air Lines Winglets
Cruising AltitudeFL330
Distance Flown1,573 nautical miles
Passengers Onboard82 passengers (50.62% full)
DEPARTURE DETAILS
Time Out09:10:10
Taxi Data140,257 lbs total with 29,842 lbs of fuel onboard
Takeoff Data09:19:16 (9 minutes after leaving gate/ramp) • 139,744 lbs total • 9° pitch at 150 knots
Departure METARKCVG 151152Z 22006KT 10SM SCT095 OVC120 20/19 A2988 RMK AO2 SLP107 BINOVC 60032 70046 T02000189 10222 20194 56031
ARRIVAL DETAILS
Landing Data13:08:43 • 119,435 lbs total • 2° pitch doing 120 knots at a rate of -198.39 feet/minute with 8,728 lbs of fuel onboard
Time In13:15:04 (6 minutes after landing)
Ramp Weight119,143 lbs total
Total Fuel Used21,114 lbs
Total Block Time04:00:45 (4 hours) while 15 minutes were spent on the ground
Arrival METARTJSJ 151656Z 05015G22KT 9SM FEW028 SCT035 SCT090 31/24 A3001 RMK AO2 SLP160 HZ ALQDS T03110244
MISCELLANEOUS DETAILS
LiveDISPATCH Version4.8.3.1
FS Version
FSUIPC Version4.93
OS VersionWindows 7 32-bit
Screen Resolution1920 x 1080
Pilot's CommentsNo Comments Reported
FLIGHT MAP